EUFO2: Eufaula Lake

Data processed at Fri Jan 20 23:16:41 2017 Central Standard Time


All information presented herein is the property of the government of the United States of America and may be revised or deleted at any time without prior notice.
Dissemination of this information without the expressed written consent of the Public Affairs Office, Tulsa District U.S. Army Corps of Engineers is strictly prohibited.
These data are gathered electronically and, as presented, have not undergone any form of quality control. These data are not guaranteed to be valid or correct.
Go to home page.
Go to station list.
Go to station map.

Upstream stations:

Downstream station: Previous Day
Next Day
Current Day

Display graphics.
Display DCP transmissions.


    
    SHEF ID:       EUFO2     Eufaula Lake
    STATION TYPE:  RESERVOIR
    Flood Control Pool:  Bottom =  585.00, Top =  597.00
    
                   PRECIP ELEVATION   STORAGE   TW-ELEV    INFLOW   RELEASE  AIR-TEMP  WIND-DIRWIND-SPEED REL-HUMID SOLAR-RAD   VOLTAGE  BAT-LOAD
                   INCHES      FEET      ACFT      FEET       CFS       CFS     DEG-F   DEGREES       MPH   PERCENT      W/M2     VOLTS     VOLTS
                     GOES      GOES      GOES      GOES  COMPRESQ    POWERQ      GOES      GOES      GOES      GOES      GOES      GOES      GOES
       (Cen)
    01/20 01:00      0.00    580.58   1807698    482.56      3064         0     52.20    116.90      3.44     86.14      0.00     13.76     13.53
    01/20 02:00      0.00    580.57   1806885    482.56      3064         0     54.07    125.20      3.72     83.33      0.00     13.76     13.53
    01/20 03:00      0.00    580.58   1807698    482.57         0         0     48.58    124.40      2.35     92.37      0.00     13.75     13.53
    01/20 04:00      0.00    580.57   1806885    482.57         0         0     45.93    131.80      2.40     95.73      0.00     13.76     13.53
    01/20 05:00      0.00    580.57   1806885    482.56         0         0     44.83    149.00      3.16     97.01      0.00     13.76     13.36
    01/20 06:00      0.00    580.57   1806885    482.57         0         0     42.42    142.10      3.89     97.50      0.00     13.75     13.53
    01/20 07:00      0.00    580.57   1806885    482.57      3935         0     43.07    132.10      4.13     97.99      0.00     13.75     13.53
    01/20 08:00      0.00    580.57   1806885    482.57      7872         0     41.22    142.80      3.95     98.11      9.00     13.75     13.53
    01/20 09:00      0.00    580.59   1808511    482.57      9184         0     47.80    122.80      3.56     98.73    133.00     13.75     13.53
    01/20 10:00      0.00    580.61   1810138    482.56      9184         0     58.35    143.80      5.67     56.11    293.00     13.76     13.53
    01/20 11:00      0.00    580.62   1810951    482.55      9184         0     61.32    196.10      6.94     45.36    434.00     13.76     13.53
    01/20 12:00      0.00    580.63   1811764    482.57      5249         0     64.51    197.30      7.28     38.52    509.00     13.76     13.53
    01/20 13:00      0.00    580.65   1813390    482.56      1312         0     66.27    217.30      8.42     34.86    571.00     13.77     13.36
    01/20 14:00      0.00    580.64   1812577    482.55         0         0     67.69    216.70      8.06     33.15    552.00     13.77     13.53
    01/20 15:00      0.00    580.63   1811764    482.55         0         0     70.21    203.10      9.39     27.23    476.00     13.77     13.53
    01/20 16:00      0.00    580.66   1814204    482.56         0         0     72.07    225.90     10.98     20.57    343.00     13.78     13.53
    01/20 17:00      0.00    580.66   1814204    482.55         0         0     71.20    237.80     10.35     21.43    189.00     13.78     13.53
    01/20 18:00      0.00    580.63   1811764    482.54         0         0     68.88    224.70      6.56     24.78     23.00      ----      ----
    01/20 19:00      ----    580.63   1811764    482.56         0         0     64.94    148.20      4.65     36.45      0.00     13.78     13.53
    01/20 20:00      ----    580.62   1810951    482.56         0         0     63.41    154.00      4.23     39.19      0.00     13.78     13.53
    01/20 21:00      0.00    580.60   1809325    482.56         0         0     62.42    154.80      3.42     39.93      0.00     13.78     13.53
    01/20 22:00      0.00    580.60   1809325    482.55         0         0     62.42    164.10      6.47     41.94      0.00     13.78     13.53
    01/20 23:00      0.00    580.61   1810138    482.55         0         0     61.63    154.30      4.59     43.71      0.00     13.78     13.53
    01/21 00:00      ----      ----      ----      ----      ----         0      ----      ----      ----      ----      ----      ----      ----